Time;durP1;ratioP1;P1;durP2;ratioP2;P2;SDS_P1;SDS_P2;PMS_P1;PMS_P2;Temp;Humidity;BMP_temperature;BMP_pressure;BME280_temperature;BME280_humidity;BME280_pressure;Samples;Min_cycle;Max_cycle;Signal;HPM_P1;HPM_P2
2022/04/15 00:01:27;;;;;;;5.35;3.35;;;;;;;10.94;69.52;96453.09;10425991;27;101791;-67
2022/04/15 00:06:30;;;;;;;5.73;2.80;;;;;;;11.05;68.25;96452.94;10423739;27;96938;-67
2022/04/15 00:11:33;;;;;;;5.15;3.50;;;;;;;11.16;68.13;96454.50;10432354;27;96697;-67
2022/04/15 00:16:37;;;;;;;6.32;3.45;;;;;;;11.14;68.22;96456.47;10430431;27;96913;-67
2022/04/15 00:21:41;;;;;;;9.63;3.70;;;;;;;10.96;69.21;96444.16;10434769;27;96883;-67
2022/04/15 00:26:43;;;;;;;6.13;3.28;;;;;;;10.93;69.54;96451.44;10424970;27;96972;-67
2022/04/15 00:31:48;;;;;;;4.97;2.83;;;;;;;10.96;68.56;96459.00;10446630;27;96937;-67
2022/04/15 00:36:50;;;;;;;6.87;3.60;;;;;;;10.95;68.85;96458.19;10431796;27;96873;-67
2022/04/15 00:41:53;;;;;;;8.90;3.40;;;;;;;10.95;68.46;96454.75;10436766;27;96882;-67
2022/04/15 00:46:57;;;;;;;8.93;3.53;;;;;;;10.95;68.25;96447.72;10436984;27;96691;-67
2022/04/15 00:52:02;;;;;;;7.23;3.60;;;;;;;10.89;68.11;96448.31;10435607;27;96935;-67
2022/04/15 00:57:09;;;;;;;7.00;3.37;;;;;;;10.53;70.05;96456.00;10437212;27;103749;-67
2022/04/15 01:02:17;;;;;;;7.22;4.38;;;;;;;10.26;71.48;96455.94;10428109;27;96868;-67
2022/04/15 01:07:23;;;;;;;6.50;3.80;;;;;;;10.26;71.71;96450.72;10430899;27;97007;-67
2022/04/15 01:12:30;;;;;;;9.20;4.50;;;;;;;10.20;71.76;96452.94;10429876;27;96952;-67
2022/04/15 01:17:34;;;;;;;5.00;3.45;;;;;;;10.14;71.80;96448.25;10425318;27;96844;-67
2022/04/15 01:22:39;;;;;;;6.33;3.07;;;;;;;10.32;70.69;96453.59;10430793;27;97160;-67
2022/04/15 01:27:44;;;;;;;4.27;3.23;;;;;;;10.52;69.17;96461.38;10428344;27;96915;-67
2022/04/15 01:32:48;;;;;;;6.32;3.45;;;;;;;10.68;68.98;96460.78;10453084;27;96924;-67
2022/04/15 01:37:51;;;;;;;6.82;4.00;;;;;;;10.58;69.25;96472.09;10435441;27;98415;-67
2022/04/15 01:42:55;;;;;;;5.45;3.35;;;;;;;10.54;69.31;96481.16;10447287;27;96710;-67
2022/04/15 01:47:58;;;;;;;7.20;4.03;;;;;;;10.39;70.04;96486.00;10428971;27;96848;-67
2022/04/15 01:53:01;;;;;;;6.78;3.90;;;;;;;10.09;71.40;96489.63;10448550;27;97272;-68
2022/04/15 01:58:06;;;;;;;8.75;4.75;;;;;;;10.03;71.69;96487.56;10440555;27;96938;-66
2022/04/15 02:03:09;;;;;;;11.13;6.17;;;;;;;9.92;72.50;96485.09;10447111;27;97021;-64
2022/04/15 02:08:11;;;;;;;10.00;5.00;;;;;;;9.96;72.63;96481.25;10426795;27;96804;-67
2022/04/15 02:13:16;;;;;;;14.18;8.82;;;;;;;10.05;72.81;96483.03;10436316;27;96831;-66
2022/04/15 02:18:18;;;;;;;5.60;4.27;;;;;;;10.11;71.66;96486.88;10427704;27;96742;-67
2022/04/15 02:23:27;;;;;;;5.97;4.43;;;;;;;10.02;72.06;96480.69;10441444;27;98514;-67
2022/04/15 02:28:32;;;;;;;6.88;4.13;;;;;;;10.05;71.94;96475.19;10438084;27;96879;-67
2022/04/15 02:33:34;;;;;;;6.73;4.23;;;;;;;10.12;71.67;96486.72;10435436;27;96696;-67
2022/04/15 02:38:37;;;;;;;7.38;3.90;;;;;;;10.04;71.19;96481.38;10450955;27;98350;-67
2022/04/15 02:43:42;;;;;;;7.15;3.55;;;;;;;10.01;70.83;96481.66;10426733;27;102803;-67
2022/04/15 02:48:45;;;;;;;7.45;4.10;;;;;;;10.06;69.74;96476.84;10442850;27;96874;-67
2022/04/15 02:53:48;;;;;;;5.15;4.00;;;;;;;9.88;71.06;96481.13;10433269;27;99041;-67
2022/04/15 02:58:53;;;;;;;6.35;4.05;;;;;;;9.79;71.25;96480.97;10425243;27;99055;-67
2022/04/15 03:03:56;;;;;;;6.90;4.50;;;;;;;9.51;72.16;96477.38;10426450;27;96750;-67
2022/04/15 03:08:59;;;;;;;6.30;3.92;;;;;;;9.53;71.63;96485.88;10428499;27;96793;-67
2022/04/15 03:14:03;;;;;;;8.32;4.03;;;;;;;9.49;71.60;96479.31;10440716;27;96866;-67
2022/04/15 03:19:06;;;;;;;6.97;3.70;;;;;;;9.47;70.96;96502.91;10430306;27;97041;-67
2022/04/15 03:24:08;;;;;;;8.07;4.18;;;;;;;9.50;71.03;96495.78;10443102;27;97061;-67
2022/04/15 03:29:13;;;;;;;10.23;3.88;;;;;;;9.26;71.56;96494.31;10423157;27;97375;-67
2022/04/15 03:34:16;;;;;;;6.97;4.72;;;;;;;9.12;72.32;96500.72;10436936;27;97585;-67
2022/04/15 03:39:19;;;;;;;7.55;5.18;;;;;;;9.09;73.51;96498.38;10447550;27;98424;-67
2022/04/15 03:44:23;;;;;;;5.90;4.72;;;;;;;9.10;73.35;96500.84;10434697;27;96931;-67
2022/04/15 03:49:26;;;;;;;5.63;4.50;;;;;;;9.08;73.27;96497.53;10449508;27;99042;-67
2022/04/15 03:54:29;;;;;;;6.35;4.43;;;;;;;9.11;73.22;96502.50;10444752;27;99267;-66
2022/04/15 03:59:34;;;;;;;17.27;9.95;;;;;;;9.19;73.00;96501.81;10448766;27;97750;-66
2022/04/15 04:04:36;;;;;;;14.97;9.07;;;;;;;9.14;73.36;96497.97;10430998;27;97181;-66
2022/04/15 04:09:39;;;;;;;11.00;8.93;;;;;;;9.21;72.89;96506.91;10434759;27;96791;-66
2022/04/15 04:14:43;;;;;;;12.25;8.10;;;;;;;9.24;72.01;96512.69;10430999;27;96910;-66
2022/04/15 04:19:46;;;;;;;10.43;6.87;;;;;;;9.29;71.66;96517.50;10422870;28;98166;-66
2022/04/15 04:24:54;;;;;;;7.03;4.25;;;;;;;9.21;71.73;96512.97;10447782;27;97016;-66
2022/04/15 04:29:58;;;;;;;7.07;4.40;;;;;;;9.15;71.02;96521.31;10430542;27;96915;-66
2022/04/15 04:35:01;;;;;;;8.47;4.40;;;;;;;9.17;71.55;96529.00;10437229;27;96888;-66
2022/04/15 04:40:05;;;;;;;5.80;3.92;;;;;;;9.04;72.04;96537.06;10446464;27;97317;-67
2022/04/15 04:45:11;;;;;;;10.77;4.55;;;;;;;8.99;71.12;96534.00;10429971;27;97013;-67
2022/04/15 04:50:13;;;;;;;7.13;4.65;;;;;;;8.93;71.73;96540.53;10448870;27;98076;-66
2022/04/15 04:55:16;;;;;;;7.63;5.40;;;;;;;8.79;72.87;96543.50;10430932;27;96673;-66
2022/04/15 05:00:21;;;;;;;6.07;4.53;;;;;;;8.79;73.00;96544.31;10430776;27;96716;-66
2022/04/15 05:05:24;;;;;;;6.67;4.37;;;;;;;8.78;72.29;96547.88;10430264;27;97474;-66
2022/04/15 05:10:27;;;;;;;7.05;4.68;;;;;;;8.64;73.18;96556.84;10434549;27;96916;-66
2022/04/15 05:15:31;;;;;;;6.88;5.60;;;;;;;8.53;74.13;96549.94;10432020;27;96974;-66
2022/04/15 05:20:37;;;;;;;10.93;5.50;;;;;;;8.66;74.26;96562.75;10432365;27;96790;-66
2022/04/15 05:25:40;;;;;;;10.18;5.97;;;;;;;8.69;74.96;96564.25;10428752;27;96953;-66
2022/04/15 05:30:44;;;;;;;9.43;6.07;;;;;;;8.69;75.20;96557.31;10432874;27;97383;-66
2022/04/15 05:35:47;;;;;;;12.37;7.07;;;;;;;8.82;75.62;96564.09;10428180;27;96915;-66
2022/04/15 05:40:50;;;;;;;9.45;5.82;;;;;;;8.99;75.38;96566.09;10431838;27;96880;-66
2022/04/15 05:45:55;;;;;;;10.02;6.18;;;;;;;9.18;75.23;96554.13;10432969;27;96808;-67
2022/04/15 05:50:58;;;;;;;6.78;5.15;;;;;;;9.38;74.29;96555.81;10425371;27;96664;-66
2022/04/15 05:56:01;;;;;;;9.70;5.47;;;;;;;9.53;73.51;96563.31;10431543;27;96894;-66
2022/04/15 06:01:07;;;;;;;6.45;4.53;;;;;;;9.64;73.01;96576.22;10431259;27;97398;-66
2022/04/15 06:06:09;;;;;;;9.13;5.35;;;;;;;9.74;73.42;96571.03;10426787;27;96912;-66
2022/04/15 06:11:12;;;;;;;9.98;5.25;;;;;;;9.82;73.55;96585.06;10431457;27;96780;-66
2022/04/15 06:16:19;;;;;;;6.13;5.38;;;;;;;10.03;72.85;96577.13;10434370;27;96632;-67
2022/04/15 06:21:23;;;;;;;7.40;5.13;;;;;;;10.21;72.67;96585.09;10438832;27;96923;-67
2022/04/15 06:26:26;;;;;;;7.07;4.82;;;;;;;10.36;71.71;96582.91;10428072;27;101731;-66
2022/04/15 06:31:30;;;;;;;13.30;5.68;;;;;;;10.47;71.53;96592.38;10430971;27;96952;-66
2022/04/15 06:36:33;;;;;;;9.77;5.87;;;;;;;10.65;71.77;96591.69;10427618;27;97033;-66
2022/04/15 06:41:36;;;;;;;10.50;5.55;;;;;;;10.83;70.60;96587.41;10433513;27;96906;-66
2022/04/15 06:46:40;;;;;;;10.63;6.40;;;;;;;11.10;70.72;96591.03;10437471;27;96990;-66
2022/04/15 06:51:43;;;;;;;10.40;6.27;;;;;;;11.31;70.70;96594.31;10429439;27;96876;-66
2022/04/15 06:56:47;;;;;;;10.07;6.00;;;;;;;11.58;71.63;96595.31;10425924;27;97097;-66
2022/04/15 07:01:54;;;;;;;8.15;4.97;;;;;;;11.92;71.80;96602.56;10431406;27;96816;-66
2022/04/15 07:06:57;;;;;;;7.47;5.32;;;;;;;12.29;71.51;96604.25;10445003;27;97699;-67
2022/04/15 07:12:00;;;;;;;10.90;6.30;;;;;;;12.50;70.55;96612.59;10440199;27;97956;-67
2022/04/15 07:17:05;;;;;;;10.73;6.07;;;;;;;12.60;69.88;96612.53;10452545;27;97947;-67
2022/04/15 07:22:07;;;;;;;12.35;7.70;;;;;;;12.62;69.00;96605.34;10440829;27;97282;-67
2022/04/15 07:27:10;;;;;;;13.55;7.75;;;;;;;12.70;69.32;96596.75;10433459;27;96946;-66
2022/04/15 07:32:21;;;;;;;11.75;7.57;;;;;;;12.87;68.43;96595.03;10438422;27;98261;-67
2022/04/15 07:37:24;;;;;;;12.23;8.35;;;;;;;12.95;69.08;96600.38;10438042;27;97058;-67
2022/04/15 07:42:27;;;;;;;15.32;7.53;;;;;;;13.06;68.58;96601.91;10439571;27;97379;-67
2022/04/15 07:47:31;;;;;;;14.10;8.15;;;;;;;13.19;68.26;96597.09;10429598;27;96913;-67
2022/04/15 07:52:51;;;;;;;14.00;8.68;;;;;;;13.33;67.90;96595.69;10464192;27;97013;-67
2022/04/15 07:57:55;;;;;;;11.55;8.20;;;;;;;13.53;68.30;96596.25;10431481;27;96749;-67
2022/04/15 08:02:59;;;;;;;13.88;9.05;;;;;;;13.67;67.93;96588.78;10445386;27;96966;-67
2022/04/15 08:08:02;;;;;;;13.73;9.30;;;;;;;13.72;67.29;96591.75;10435807;27;96859;-67
2022/04/15 08:13:06;;;;;;;12.65;8.52;;;;;;;13.72;68.07;96581.25;10440746;27;96867;-66
2022/04/15 08:18:11;;;;;;;13.75;10.02;;;;;;;13.88;67.98;96581.31;10457176;27;97010;-67
2022/04/15 08:23:14;;;;;;;14.90;10.07;;;;;;;13.98;67.74;96587.25;10434956;27;97213;-67
2022/04/15 08:28:17;;;;;;;15.50;10.25;;;;;;;14.20;67.28;96590.25;10428712;27;96686;-67
2022/04/15 08:33:22;;;;;;;16.23;9.77;;;;;;;14.37;67.31;96584.06;10440393;27;96879;-67
2022/04/15 08:38:25;;;;;;;14.02;10.95;;;;;;;14.63;66.49;96585.72;10431936;27;96884;-67
2022/04/15 08:43:29;;;;;;;16.15;11.05;;;;;;;14.84;66.20;96581.78;10434268;27;97031;-67
2022/04/15 08:48:34;;;;;;;17.48;10.93;;;;;;;15.07;66.29;96593.22;10432563;27;97887;-67
2022/04/15 08:53:38;;;;;;;17.13;12.07;;;;;;;15.17;65.78;96581.72;10436423;27;96935;-67
2022/04/15 08:58:41;;;;;;;14.98;11.60;;;;;;;15.33;64.99;96592.19;10429620;27;97570;-67
2022/04/15 09:03:45;;;;;;;19.15;11.65;;;;;;;15.47;65.04;96591.47;10431925;27;96868;-67
2022/04/15 09:08:59;;;;;;;16.50;12.65;;;;;;;15.65;65.06;96585.19;10428386;27;96955;-67
2022/04/15 09:14:07;;;;;;;16.17;12.13;;;;;;;15.80;64.86;96588.75;10433377;27;97290;-67
2022/04/15 09:19:13;;;;;;;14.82;11.10;;;;;;;15.95;64.04;96582.78;10446385;27;97459;-67
2022/04/15 09:24:17;;;;;;;16.88;11.55;;;;;;;16.17;63.99;96584.63;10429097;27;97418;-67
2022/04/15 09:29:21;;;;;;;18.50;13.23;;;;;;;16.29;63.38;96586.84;10429945;27;96748;-67
2022/04/15 09:34:25;;;;;;;13.97;11.53;;;;;;;16.49;63.66;96588.03;10432417;27;97751;-67
2022/04/15 09:39:28;;;;;;;;;;;;;;;16.71;63.45;96585.53;10430229;27;100313;-67
2022/04/15 09:44:33;;;;;;;15.02;12.45;;;;;;;16.87;62.78;96582.00;10425620;27;96818;-67
2022/04/15 09:49:44;;;;;;;15.77;12.00;;;;;;;17.06;61.77;96583.28;10431999;27;96894;-67
2022/04/15 09:54:49;;;;;;;15.27;11.15;;;;;;;17.28;61.39;96576.28;10432109;27;97078;-67
2022/04/15 09:59:55;;;;;;;12.43;10.68;;;;;;;17.42;60.99;96583.38;10429376;27;96835;-67
2022/04/15 10:05:00;;;;;;;14.75;10.48;;;;;;;17.74;60.44;96584.84;10433629;27;100389;-67
2022/04/15 10:10:04;;;;;;;17.13;11.30;;;;;;;17.91;59.52;96582.84;10443575;27;96840;-67
2022/04/15 10:15:11;;;;;;;15.43;10.75;;;;;;;18.28;59.37;96580.19;10428949;27;96952;-67
2022/04/15 10:20:15;;;;;;;14.63;10.70;;;;;;;18.74;58.41;96568.41;10444055;27;96751;-67
2022/04/15 10:25:19;;;;;;;13.25;11.35;;;;;;;19.02;57.65;96579.88;10440202;27;96743;-67
2022/04/15 10:30:22;;;;;;;15.37;11.40;;;;;;;19.14;56.56;96569.56;10448896;27;96971;-67
2022/04/15 10:35:28;;;;;;;13.93;10.55;;;;;;;19.16;57.14;96564.88;10427248;27;96876;-67
2022/04/15 10:40:32;;;;;;;13.68;10.52;;;;;;;19.11;56.90;96556.69;10437190;27;96898;-67
2022/04/15 10:45:38;;;;;;;17.33;11.38;;;;;;;19.18;56.57;96557.56;10432391;27;96912;-67
2022/04/15 10:50:43;;;;;;;11.98;10.68;;;;;;;19.28;56.09;96566.97;10428307;27;99062;-67
2022/04/15 10:55:52;;;;;;;15.48;10.88;;;;;;;19.37;55.85;96561.34;10452490;27;96903;-67
2022/04/15 11:01:19;;;;;;;15.38;11.55;;;;;;;19.21;55.46;96562.47;10441731;27;97122;-67
2022/04/15 11:06:29;;;;;;;14.57;10.10;;;;;;;19.23;56.27;96551.69;10440406;27;96966;-67
2022/04/15 11:11:36;;;;;;;10.93;9.43;;;;;;;19.37;55.81;96565.84;10428108;27;96931;-67
2022/04/15 11:16:41;;;;;;;15.23;12.03;;;;;;;19.45;55.20;96557.69;10432219;27;96829;-67
2022/04/15 11:21:50;;;;;;;13.63;10.63;;;;;;;19.81;54.70;96552.16;10435892;27;96884;-67
2022/04/15 11:26:58;;;;;;;15.70;11.40;;;;;;;20.11;53.45;96545.75;10424736;27;96958;-67
2022/04/15 11:32:05;;;;;;;13.35;11.02;;;;;;;19.91;53.73;96535.91;10433210;27;96889;-67
2022/04/15 11:37:11;;;;;;;18.05;11.82;;;;;;;19.68;53.37;96540.69;10439799;27;96942;-67
2022/04/15 11:42:17;;;;;;;14.40;10.10;;;;;;;19.42;53.93;96536.94;10423927;27;99047;-67
2022/04/15 11:47:23;;;;;;;13.57;9.25;;;;;;;19.41;53.64;96535.28;10425994;27;96763;-67
2022/04/15 11:52:29;;;;;;;12.88;10.48;;;;;;;19.60;53.24;96523.94;10435334;27;97462;-67
2022/04/15 11:57:32;;;;;;;14.02;10.07;;;;;;;19.90;52.34;96523.66;10432844;27;97869;-67
2022/04/15 12:02:42;;;;;;;11.23;7.97;;;;;;;20.51;52.15;96514.81;10453213;27;97175;-67
2022/04/15 12:07:48;;;;;;;11.00;7.97;;;;;;;21.00;51.35;96518.09;10436088;27;97195;-67
2022/04/15 12:12:52;;;;;;;14.43;7.80;;;;;;;21.59;50.47;96520.78;10441600;27;96873;-67
2022/04/15 12:17:55;;;;;;;;;;;;;;;21.58;50.41;96521.81;10456603;27;96733;-67
2022/04/15 12:23:00;;;;;;;11.35;6.93;;;;;;;20.74;48.72;96514.44;10449329;27;97682;-67
2022/04/15 12:29:47;;;;;;;7.93;5.63;;;;;;;20.90;49.65;96505.22;10440830;27;97885;-67
2022/04/15 12:33:49;;;;;;;11.48;5.22;;;;;;;21.28;48.33;96506.38;10438306;27;96899;-67
2022/04/15 12:39:01;;;;;;;7.50;4.82;;;;;;;21.28;47.27;96498.41;10434969;27;97902;-67
2022/04/15 12:44:17;;;;;;;9.70;5.50;;;;;;;21.55;47.21;96498.31;10435998;27;97264;-67
2022/04/15 12:49:28;;;;;;;6.35;4.18;;;;;;;21.53;47.44;96484.41;10436004;27;97094;-67
2022/04/15 12:54:33;;;;;;;8.30;4.78;;;;;;;21.97;47.02;96485.44;10433320;27;98651;-67
2022/04/15 12:59:38;;;;;;;6.70;4.50;;;;;;;22.43;46.56;96473.69;10442835;27;96782;-67
2022/04/15 13:04:40;;;;;;;6.65;4.35;;;;;;;22.70;45.61;96478.81;10433854;27;96709;-68
2022/04/15 13:09:46;;;;;;;6.72;4.05;;;;;;;22.73;45.72;96465.84;10441941;27;97936;-67
2022/04/15 13:14:49;;;;;;;4.80;3.90;;;;;;;22.86;45.49;96464.94;10431712;27;96972;-67
2022/04/15 13:19:52;;;;;;;7.28;4.57;;;;;;;22.92;44.71;96460.56;10442296;27;98927;-67
2022/04/15 13:24:57;;;;;;;7.90;4.57;;;;;;;22.84;43.75;96456.34;10440018;27;97094;-68
2022/04/15 13:30:00;;;;;;;7.78;4.15;;;;;;;22.38;44.52;96449.56;10428753;27;97143;-67
2022/04/15 13:35:02;;;;;;;10.60;4.95;;;;;;;22.41;44.30;96449.94;10447340;27;96868;-67
2022/04/15 13:40:08;;;;;;;7.35;3.90;;;;;;;22.12;45.48;96446.06;10429409;27;96871;-67
2022/04/15 13:45:11;;;;;;;7.18;3.92;;;;;;;22.20;45.12;96458.31;10425697;27;96951;-67
2022/04/15 13:50:14;;;;;;;9.15;4.53;;;;;;;22.24;44.54;96447.00;10448092;27;96762;-67
2022/04/15 14:00:41;;;;;;;6.90;3.70;;;;;;;22.75;44.29;96428.34;10449123;27;96797;-67
2022/04/15 14:05:44;;;;;;;8.30;4.72;;;;;;;22.71;44.03;96433.31;10457056;27;96793;-67
2022/04/15 14:10:48;;;;;;;8.07;4.00;;;;;;;22.90;43.92;96423.50;10448272;27;97951;-67
2022/04/15 14:15:51;;;;;;;9.90;4.53;;;;;;;23.72;43.20;96428.50;10428439;27;98509;-70
2022/04/15 14:20:54;;;;;;;10.48;4.28;;;;;;;24.37;42.44;96431.47;10426702;27;97649;-68
2022/04/15 14:25:58;;;;;;;8.82;4.40;;;;;;;23.97;42.09;96424.84;10447304;27;96861;-68
2022/04/15 14:31:03;;;;;;;6.25;3.45;;;;;;;23.88;42.96;96421.69;10443547;27;97050;-68
2022/04/15 14:36:07;;;;;;;10.38;4.18;;;;;;;24.25;42.96;96415.44;10454785;27;97422;-68
2022/04/15 14:41:12;;;;;;;7.50;4.15;;;;;;;24.80;42.03;96412.44;10452876;27;96926;-68
2022/04/15 14:46:14;;;;;;;8.48;3.90;;;;;;;24.95;42.21;96411.16;10447315;27;96732;-68
2022/04/15 14:51:18;;;;;;;7.30;4.60;;;;;;;25.65;40.80;96404.00;10451373;27;97032;-68
2022/04/15 14:56:22;;;;;;;6.85;3.45;;;;;;;26.53;40.10;96397.19;10453750;27;96705;-68
2022/04/15 15:01:25;;;;;;;10.80;3.40;;;;;;;27.01;38.28;96403.00;10447199;27;97020;-69
2022/04/15 15:06:28;;;;;;;6.68;3.30;;;;;;;27.25;37.49;96397.41;10428226;27;97286;-69
2022/04/15 15:11:33;;;;;;;7.50;3.60;;;;;;;26.73;37.94;96396.69;10425814;27;96934;-68
2022/04/15 15:16:37;;;;;;;8.65;3.42;;;;;;;26.78;38.20;96397.81;10437536;27;96691;-68
2022/04/15 15:21:42;;;;;;;5.90;3.38;;;;;;;27.61;36.39;96389.72;10436779;27;96722;-68
2022/04/15 15:32:09;;;;;;;6.57;3.10;;;;;;;26.37;37.51;96388.13;10440707;27;97007;-69
2022/04/15 15:37:12;;;;;;;6.35;2.83;;;;;;;25.67;37.75;96400.06;10434544;27;96869;-69
2022/04/15 15:42:17;;;;;;;6.20;3.10;;;;;;;24.83;38.21;96397.81;10460804;27;96979;-69
2022/04/15 15:47:19;;;;;;;7.57;3.40;;;;;;;24.72;38.81;96396.75;10442984;27;96916;-68
2022/04/15 15:52:23;;;;;;;8.68;3.38;;;;;;;25.45;38.02;96386.50;10436390;27;97789;-69
2022/04/15 15:57:27;;;;;;;7.10;3.53;;;;;;;25.46;38.06;96380.09;10455206;27;99499;-68
2022/04/15 16:02:42;;;;;;;6.43;2.88;;;;;;;25.94;37.73;96384.19;10450632;27;96870;-68
2022/04/15 16:07:46;;;;;;;7.93;3.40;;;;;;;26.15;37.20;96374.66;10441777;27;97214;-68
2022/04/15 16:12:50;;;;;;;6.25;3.05;;;;;;;26.03;36.70;96386.47;10439124;27;97334;-68
2022/04/15 16:17:54;;;;;;;6.15;3.30;;;;;;;25.51;37.05;96380.22;10462093;27;97309;-68
2022/04/15 16:22:57;;;;;;;6.47;3.13;;;;;;;25.46;37.46;96371.25;10450984;27;97991;-68
2022/04/15 16:28:01;;;;;;;7.17;3.10;;;;;;;26.22;37.06;96369.09;10459429;27;96794;-68
2022/04/15 16:33:05;;;;;;;6.65;3.25;;;;;;;25.74;36.89;96379.31;10435258;27;96964;-68
2022/04/15 16:38:08;;;;;;;6.00;3.00;;;;;;;24.82;38.04;96372.97;10447522;27;100561;-68
2022/04/15 16:43:12;;;;;;;6.43;3.27;;;;;;;23.96;39.09;96377.06;10438198;27;96958;-68
2022/04/15 16:48:15;;;;;;;6.57;3.17;;;;;;;23.31;40.20;96376.72;10436738;27;96879;-68
2022/04/15 16:53:18;;;;;;;6.45;3.33;;;;;;;22.71;40.77;96373.91;10430227;27;98933;-68
2022/04/15 16:58:41;;;;;;;8.05;3.70;;;;;;;22.15;41.91;96375.66;10433716;27;96866;-68
2022/04/15 17:03:47;;;;;;;7.85;3.63;;;;;;;21.94;42.37;96379.50;10440490;27;96913;-68
2022/04/15 17:08:50;;;;;;;7.25;3.20;;;;;;;21.62;43.28;96371.50;10429477;27;96963;-68
2022/04/15 17:13:54;;;;;;;6.65;3.22;;;;;;;21.48;44.13;96371.59;10435479;27;99538;-68
2022/04/15 17:18:59;;;;;;;;;;;;;;;21.19;44.85;96382.75;10445234;27;96749;-68
2022/04/15 17:24:02;;;;;;;8.47;3.70;;;;;;;21.13;45.07;96379.91;10441224;27;97302;-68
2022/04/15 17:29:09;;;;;;;9.18;3.33;;;;;;;21.11;46.31;96384.63;10430209;27;96843;-67
2022/04/15 17:34:14;;;;;;;;;;;;;;;21.03;45.51;96390.19;10428669;27;96956;-68
2022/04/15 17:39:17;;;;;;;7.30;3.60;;;;;;;20.51;47.00;96397.22;10434127;27;100477;-68
2022/04/15 17:44:21;;;;;;;10.07;4.00;;;;;;;20.16;48.30;96392.13;10430291;27;96696;-67
2022/04/15 17:49:24;;;;;;;7.10;3.60;;;;;;;19.94;48.33;96402.13;10430970;27;97218;-68
2022/04/15 17:54:27;;;;;;;6.78;3.65;;;;;;;19.55;49.32;96396.53;10431517;27;98071;-67
2022/04/15 17:59:34;;;;;;;7.05;3.92;;;;;;;19.27;49.44;96403.78;10430322;27;97101;-67
2022/04/15 18:04:37;;;;;;;8.45;3.95;;;;;;;19.10;50.28;96406.78;10432204;27;100810;-67
2022/04/15 18:09:40;;;;;;;9.27;4.07;;;;;;;18.90;50.78;96411.16;10432852;27;96714;-67
2022/04/15 18:14:44;;;;;;;7.47;3.90;;;;;;;18.67;50.77;96420.16;10441896;27;100440;-68
2022/04/15 18:19:47;;;;;;;8.15;3.67;;;;;;;18.41;51.11;96418.97;10443759;27;96924;-68
2022/04/15 18:24:50;;;;;;;7.90;3.67;;;;;;;18.30;51.25;96424.78;10440798;27;96934;-68
2022/04/15 18:29:55;;;;;;;10.73;3.78;;;;;;;18.17;51.59;96433.44;10442722;27;96816;-67
2022/04/15 18:34:57;;;;;;;9.48;3.97;;;;;;;18.11;51.19;96435.00;10450571;27;96902;-67
2022/04/15 18:40:01;;;;;;;8.40;4.13;;;;;;;18.07;51.82;96439.03;10440909;27;97669;-68
2022/04/15 18:45:06;;;;;;;6.50;3.47;;;;;;;18.07;51.12;96441.69;10451303;27;96957;-67
2022/04/15 18:55:30;;;;;;;7.63;4.60;;;;;;;18.00;51.24;96447.94;10441206;27;98356;-71
2022/04/15 19:00:37;;;;;;;8.15;3.97;;;;;;;17.91;51.29;96448.06;10451221;27;96849;-65
2022/04/15 19:05:40;;;;;;;9.85;4.80;;;;;;;17.82;50.97;96448.31;10453856;27;96702;-70
2022/04/15 19:10:44;;;;;;;9.17;3.70;;;;;;;17.72;50.71;96449.44;10441045;27;96879;-68
2022/04/15 19:15:48;;;;;;;12.90;7.10;;;;;;;17.63;51.55;96458.50;10448189;27;96927;-65
2022/04/15 19:20:51;;;;;;;9.40;3.38;;;;;;;17.47;51.66;96461.34;10452983;27;96945;-68
2022/04/15 19:25:54;;;;;;;7.75;4.65;;;;;;;17.37;51.97;96464.31;10449206;27;98359;-67
2022/04/15 19:31:00;;;;;;;8.90;3.60;;;;;;;17.23;51.89;96458.06;10452674;27;97105;-67
2022/04/15 19:36:03;;;;;;;8.15;3.45;;;;;;;17.13;51.92;96473.34;10451414;27;98322;-68
2022/04/15 19:41:08;;;;;;;6.18;3.13;;;;;;;16.99;52.05;96473.16;10450180;27;98616;-68
2022/04/15 19:46:12;;;;;;;5.88;3.20;;;;;;;16.89;52.43;96480.53;10448680;27;98301;-68
2022/04/15 19:51:15;;;;;;;5.72;3.30;;;;;;;16.73;52.40;96485.97;10451664;27;96807;-67
2022/04/15 20:02:02;;;;;;;5.80;3.25;;;;;;;16.53;52.62;96491.72;10455456;27;97100;-67
2022/04/15 20:07:05;;;;;;;7.22;3.08;;;;;;;16.45;52.28;96483.91;10448927;27;97951;-68
2022/04/15 20:12:08;;;;;;;5.97;3.00;;;;;;;16.40;52.09;96494.16;10449892;27;96960;-67
2022/04/15 20:17:13;;;;;;;5.70;3.00;;;;;;;16.35;52.27;96489.41;10453517;27;97186;-68
2022/04/15 20:22:15;;;;;;;6.53;2.92;;;;;;;16.27;51.78;96497.38;10449225;27;97921;-67
2022/04/15 20:27:19;;;;;;;10.88;5.60;;;;;;;16.22;52.21;96490.03;10455018;27;96898;-66
2022/04/15 20:32:24;;;;;;;8.68;3.17;;;;;;;16.21;52.11;96493.66;10458311;27;96822;-67
2022/04/15 20:37:27;;;;;;;5.90;2.72;;;;;;;16.19;51.40;96489.53;10437447;27;96978;-67
2022/04/15 20:42:31;;;;;;;12.60;3.83;;;;;;;16.18;51.51;96491.34;10448548;27;97486;-67
2022/04/15 20:47:35;;;;;;;7.03;3.25;;;;;;;16.18;51.45;96491.34;10436884;27;99336;-66
2022/04/15 20:52:39;;;;;;;8.90;2.85;;;;;;;16.12;51.42;96492.09;10452889;27;97147;-67
2022/04/15 20:57:45;;;;;;;7.07;3.05;;;;;;;16.04;50.90;96489.50;10459926;27;96947;-67
2022/04/15 21:02:49;;;;;;;7.07;2.92;;;;;;;15.99;50.97;96487.38;10446405;27;97847;-66
2022/04/15 21:07:52;;;;;;;;;;;;;;;15.96;51.30;96486.91;10459312;27;96944;-71
2022/04/15 21:12:55;;;;;;;8.05;3.53;;;;;;;15.89;51.27;96481.50;10441068;27;96841;-67
2022/04/15 21:17:59;;;;;;;8.02;3.75;;;;;;;15.88;50.80;96479.91;10429109;27;99982;-66
2022/04/15 21:23:02;;;;;;;6.75;3.83;;;;;;;15.84;50.99;96484.69;10437624;27;97578;-68
2022/04/15 21:28:05;;;;;;;10.25;4.82;;;;;;;15.77;51.17;96473.22;10457058;27;96955;-66
2022/04/15 21:33:09;;;;;;;9.63;4.50;;;;;;;15.60;51.83;96484.81;10454435;27;98174;-67
2022/04/15 21:38:13;;;;;;;7.78;3.80;;;;;;;15.36;52.78;96491.84;10454130;27;96939;-67
2022/04/15 21:43:16;;;;;;;7.18;3.38;;;;;;;15.31;52.00;96494.16;10439735;27;96770;-67
2022/04/15 21:48:21;;;;;;;5.55;3.13;;;;;;;15.09;52.79;96501.78;10446817;27;96816;-67
2022/04/15 21:53:23;;;;;;;7.10;3.40;;;;;;;14.90;53.79;96496.91;10448231;27;96956;-67
2022/04/15 21:58:26;;;;;;;5.63;2.88;;;;;;;14.64;53.84;96497.94;10446876;27;96835;-67
2022/04/15 22:03:32;;;;;;;7.03;3.10;;;;;;;14.39;54.88;96498.97;10429097;27;97026;-67
2022/04/15 22:08:35;;;;;;;7.35;2.85;;;;;;;14.39;53.66;96493.72;10445860;27;96833;-67
2022/04/15 22:13:38;;;;;;;6.18;2.70;;;;;;;14.33;54.81;96500.44;10456716;27;97646;-67
2022/04/15 22:18:42;;;;;;;5.53;2.67;;;;;;;14.24;54.57;96504.84;10453330;27;96783;-67
2022/04/15 22:23:45;;;;;;;5.40;2.65;;;;;;;14.05;54.09;96505.16;10452716;27;96923;-67
2022/04/15 22:28:48;;;;;;;4.30;2.83;;;;;;;13.99;55.36;96504.84;10448591;27;97970;-67
2022/04/15 22:33:52;;;;;;;5.82;2.97;;;;;;;13.99;55.02;96512.72;10446528;27;97013;-67
2022/04/15 22:38:56;;;;;;;8.10;3.00;;;;;;;13.85;55.40;96513.34;10433103;27;96970;-67
2022/04/15 22:43:58;;;;;;;4.00;2.58;;;;;;;13.54;56.03;96513.94;10449839;27;99636;-67
2022/04/15 22:49:03;;;;;;;4.78;2.60;;;;;;;13.38;56.49;96517.31;10442473;27;97069;-68
2022/04/15 22:54:05;;;;;;;7.87;4.87;;;;;;;13.32;56.11;96517.94;10440446;27;96978;-66
2022/04/15 22:59:10;;;;;;;6.82;3.08;;;;;;;13.26;56.96;96523.03;10426234;27;98702;-66
2022/04/15 23:04:14;;;;;;;6.50;2.83;;;;;;;13.23;56.69;96522.34;10432847;27;96952;-67
2022/04/15 23:09:19;;;;;;;6.70;3.80;;;;;;;13.09;56.93;96536.03;10438487;27;96819;-67
2022/04/15 23:14:24;;;;;;;6.97;3.50;;;;;;;12.99;57.11;96540.56;10429675;27;96721;-67
2022/04/15 23:19:34;;;;;;;6.75;3.50;;;;;;;12.94;57.04;96540.22;10449782;27;97023;-67
2022/04/15 23:24:40;;;;;;;7.68;3.13;;;;;;;12.74;58.56;96555.31;10465361;27;96835;-67
2022/04/15 23:29:43;;;;;;;7.47;3.65;;;;;;;12.40;58.98;96543.75;10462953;27;97044;-67
2022/04/15 23:34:47;;;;;;;5.57;3.25;;;;;;;12.26;59.56;96552.97;10432590;27;99513;-67
2022/04/15 23:39:50;;;;;;;5.07;2.70;;;;;;;12.02;59.91;96539.66;10440060;27;96974;-67
2022/04/15 23:44:52;;;;;;;6.75;3.25;;;;;;;11.92;60.45;96534.50;10438864;27;98614;-67
2022/04/15 23:49:57;;;;;;;4.80;2.72;;;;;;;11.93;59.50;96541.38;10443247;27;96853;-67
2022/04/15 23:54:59;;;;;;;5.10;2.87;;;;;;;11.69;60.37;96537.53;10451126;27;100603;-67
